sensor_id;sensor_type;location;lat;lon;timestamp;temperature;humidity
28725;DHT22;43472;48.980;9.646;2022-08-25T00:00:22;18.40;99.90
28725;DHT22;43472;48.980;9.646;2022-08-25T00:05:27;18.50;99.90
28725;DHT22;43472;48.980;9.646;2022-08-25T00:10:35;18.50;99.90
28725;DHT22;43472;48.980;9.646;2022-08-25T00:15:37;18.40;99.90
28725;DHT22;43472;48.980;9.646;2022-08-25T00:20:39;18.20;99.90
28725;DHT22;43472;48.980;9.646;2022-08-25T00:25:49;18.40;99.90
28725;DHT22;43472;48.980;9.646;2022-08-25T00:30:51;18.20;99.90
28725;DHT22;43472;48.980;9.646;2022-08-25T00:35:53;18.10;99.90
28725;DHT22;43472;48.980;9.646;2022-08-25T00:40:57;18.30;99.90
28725;DHT22;43472;48.980;9.646;2022-08-25T00:46:09;17.90;99.90
28725;DHT22;43472;48.980;9.646;2022-08-25T00:51:13;18.00;99.90
28725;DHT22;43472;48.980;9.646;2022-08-25T00:56:16;17.90;99.90
28725;DHT22;43472;48.980;9.646;2022-08-25T01:01:22;17.80;99.90
28725;DHT22;43472;48.980;9.646;2022-08-25T01:06:25;17.70;99.90
28725;DHT22;43472;48.980;9.646;2022-08-25T01:11:27;17.80;99.90
28725;DHT22;43472;48.980;9.646;2022-08-25T01:16:30;17.90;99.90
28725;DHT22;43472;48.980;9.646;2022-08-25T01:21:39;17.70;99.90
28725;DHT22;43472;48.980;9.646;2022-08-25T01:26:42;17.60;99.90
28725;DHT22;43472;48.980;9.646;2022-08-25T01:36:47;17.50;99.90
28725;DHT22;43472;48.980;9.646;2022-08-25T01:52:31;17.60;99.90
28725;DHT22;43472;48.980;9.646;2022-08-25T01:57:33;17.50;99.90
28725;DHT22;43472;48.980;9.646;2022-08-25T02:02:35;17.40;99.90
28725;DHT22;43472;48.980;9.646;2022-08-25T02:07:43;17.20;99.90
28725;DHT22;43472;48.980;9.646;2022-08-25T02:12:45;17.20;99.90
28725;DHT22;43472;48.980;9.646;2022-08-25T02:22:50;17.40;99.90
28725;DHT22;43472;48.980;9.646;2022-08-25T02:27:57;17.30;99.90
28725;DHT22;43472;48.980;9.646;2022-08-25T02:38:02;17.50;99.90
28725;DHT22;43472;48.980;9.646;2022-08-25T02:53:08;17.10;99.90
28725;DHT22;43472;48.980;9.646;2022-08-25T02:58:10;17.10;99.90
28725;DHT22;43472;48.980;9.646;2022-08-25T03:03:18;17.00;99.90
28725;DHT22;43472;48.980;9.646;2022-08-25T03:13:26;16.80;99.90
28725;DHT22;43472;48.980;9.646;2022-08-25T03:18:29;16.80;99.90
28725;DHT22;43472;48.980;9.646;2022-08-25T03:33:36;16.50;99.90
28725;DHT22;43472;48.980;9.646;2022-08-25T03:53:46;16.70;99.90
28725;DHT22;43472;48.980;9.646;2022-08-25T04:14:05;16.80;99.90
28725;DHT22;43472;48.980;9.646;2022-08-25T04:19:07;16.70;99.90
28725;DHT22;43472;48.980;9.646;2022-08-25T04:24:16;16.50;99.90
28725;DHT22;43472;48.980;9.646;2022-08-25T04:29:24;16.60;99.90
28725;DHT22;43472;48.980;9.646;2022-08-25T04:39:32;16.10;99.90
28725;DHT22;43472;48.980;9.646;2022-08-25T04:44:51;16.20;99.90
28725;DHT22;43472;48.980;9.646;2022-08-25T04:50:42;16.20;99.90
28725;DHT22;43472;48.980;9.646;2022-08-25T05:07:58;16.20;99.90
28725;DHT22;43472;48.980;9.646;2022-08-25T05:38:21;16.40;99.90
28725;DHT22;43472;48.980;9.646;2022-08-25T05:53:32;16.90;99.90
28725;DHT22;43472;48.980;9.646;2022-08-25T05:58:35;16.90;99.90
28725;DHT22;43472;48.980;9.646;2022-08-25T06:03:37;16.90;99.90
28725;DHT22;43472;48.980;9.646;2022-08-25T06:18:43;17.20;99.90
28725;DHT22;43472;48.980;9.646;2022-08-25T06:23:46;17.30;99.90
28725;DHT22;43472;48.980;9.646;2022-08-25T06:28:50;17.90;99.90
28725;DHT22;43472;48.980;9.646;2022-08-25T06:43:57;19.00;99.90
28725;DHT22;43472;48.980;9.646;2022-08-25T06:49:06;19.10;99.90
28725;DHT22;43472;48.980;9.646;2022-08-25T06:54:09;19.40;99.90
28725;DHT22;43472;48.980;9.646;2022-08-25T06:59:11;19.80;99.90
28725;DHT22;43472;48.980;9.646;2022-08-25T07:04:13;20.00;99.90
28725;DHT22;43472;48.980;9.646;2022-08-25T07:09:15;20.20;99.90
28725;DHT22;43472;48.980;9.646;2022-08-25T07:14:18;20.60;99.90
28725;DHT22;43472;48.980;9.646;2022-08-25T07:19:20;20.50;99.90
28725;DHT22;43472;48.980;9.646;2022-08-25T07:24:22;20.20;99.90
28725;DHT22;43472;48.980;9.646;2022-08-25T07:29:26;20.80;99.90
28725;DHT22;43472;48.980;9.646;2022-08-25T07:34:33;21.10;99.90
28725;DHT22;43472;48.980;9.646;2022-08-25T07:39:54;21.20;99.90
28725;DHT22;43472;48.980;9.646;2022-08-25T07:44:57;21.30;99.90
28725;DHT22;43472;48.980;9.646;2022-08-25T07:49:59;21.40;99.90
28725;DHT22;43472;48.980;9.646;2022-08-25T07:55:01;21.50;99.90
28725;DHT22;43472;48.980;9.646;2022-08-25T08:00:04;21.70;99.90
28725;DHT22;43472;48.980;9.646;2022-08-25T08:05:08;21.60;99.90
28725;DHT22;43472;48.980;9.646;2022-08-25T08:10:12;22.10;99.90
28725;DHT22;43472;48.980;9.646;2022-08-25T08:15:36;21.80;99.90
28725;DHT22;43472;48.980;9.646;2022-08-25T08:20:38;21.80;99.90
28725;DHT22;43472;48.980;9.646;2022-08-25T08:25:43;22.10;99.90
28725;DHT22;43472;48.980;9.646;2022-08-25T08:30:46;22.30;99.90
28725;DHT22;43472;48.980;9.646;2022-08-25T08:35:57;22.20;99.90
28725;DHT22;43472;48.980;9.646;2022-08-25T08:46:41;22.70;99.90
28725;DHT22;43472;48.980;9.646;2022-08-25T08:51:52;22.60;99.90
28725;DHT22;43472;48.980;9.646;2022-08-25T09:02:27;23.00;99.90
28725;DHT22;43472;48.980;9.646;2022-08-25T09:07:54;22.70;99.90
28725;DHT22;43472;48.980;9.646;2022-08-25T09:13:13;22.70;99.90
28725;DHT22;43472;48.980;9.646;2022-08-25T09:18:45;22.60;99.90
28725;DHT22;43472;48.980;9.646;2022-08-25T09:24:21;23.50;99.90
28725;DHT22;43472;48.980;9.646;2022-08-25T09:29:30;23.00;99.90
28725;DHT22;43472;48.980;9.646;2022-08-25T09:34:38;22.90;99.90
28725;DHT22;43472;48.980;9.646;2022-08-25T09:39:40;22.90;99.90
28725;DHT22;43472;48.980;9.646;2022-08-25T09:44:44;23.80;99.90
28725;DHT22;43472;48.980;9.646;2022-08-25T09:49:49;23.00;99.90
28725;DHT22;43472;48.980;9.646;2022-08-25T09:54:53;23.50;99.90
28725;DHT22;43472;48.980;9.646;2022-08-25T09:59:56;23.40;99.90
28725;DHT22;43472;48.980;9.646;2022-08-25T10:04:58;23.80;99.90
28725;DHT22;43472;48.980;9.646;2022-08-25T10:10:31;23.70;99.90
28725;DHT22;43472;48.980;9.646;2022-08-25T10:15:36;23.80;99.90
28725;DHT22;43472;48.980;9.646;2022-08-25T10:20:39;25.60;99.90
28725;DHT22;43472;48.980;9.646;2022-08-25T10:25:47;23.80;99.90
28725;DHT22;43472;48.980;9.646;2022-08-25T10:31:07;24.30;99.90
28725;DHT22;43472;48.980;9.646;2022-08-25T10:36:20;24.40;99.90
28725;DHT22;43472;48.980;9.646;2022-08-25T10:46:46;23.80;99.90
28725;DHT22;43472;48.980;9.646;2022-08-25T10:52:00;23.70;99.90
28725;DHT22;43472;48.980;9.646;2022-08-25T11:07:53;23.90;99.90
28725;DHT22;43472;48.980;9.646;2022-08-25T11:13:02;24.20;99.90
28725;DHT22;43472;48.980;9.646;2022-08-25T11:18:13;24.00;99.90
28725;DHT22;43472;48.980;9.646;2022-08-25T11:23:30;24.50;99.90
28725;DHT22;43472;48.980;9.646;2022-08-25T11:33:53;24.60;99.90
28725;DHT22;43472;48.980;9.646;2022-08-25T11:50:05;23.30;99.90
28725;DHT22;43472;48.980;9.646;2022-08-25T12:00:46;23.20;99.90
28725;DHT22;43472;48.980;9.646;2022-08-25T12:05:50;23.10;99.90
28725;DHT22;43472;48.980;9.646;2022-08-25T12:15:59;24.30;99.90
28725;DHT22;43472;48.980;9.646;2022-08-25T12:36:57;24.90;99.90
28725;DHT22;43472;48.980;9.646;2022-08-25T12:42:05;25.40;99.90
28725;DHT22;43472;48.980;9.646;2022-08-25T12:52:25;24.10;99.90
28725;DHT22;43472;48.980;9.646;2022-08-25T12:57:44;25.10;99.90
28725;DHT22;43472;48.980;9.646;2022-08-25T13:03:19;24.60;99.90
28725;DHT22;43472;48.980;9.646;2022-08-25T13:18:45;25.90;99.90
28725;DHT22;43472;48.980;9.646;2022-08-25T13:23:54;24.90;99.90
28725;DHT22;43472;48.980;9.646;2022-08-25T13:29:13;24.90;99.90
28725;DHT22;43472;48.980;9.646;2022-08-25T13:34:21;28.30;99.90
28725;DHT22;43472;48.980;9.646;2022-08-25T13:39:36;25.80;99.90
28725;DHT22;43472;48.980;9.646;2022-08-25T13:44:58;25.70;99.90
28725;DHT22;43472;48.980;9.646;2022-08-25T13:55:27;24.50;99.90
28725;DHT22;43472;48.980;9.646;2022-08-25T14:01:15;25.80;99.90
28725;DHT22;43472;48.980;9.646;2022-08-25T14:06:37;26.20;99.90
28725;DHT22;43472;48.980;9.646;2022-08-25T14:11:43;25.00;99.90
28725;DHT22;43472;48.980;9.646;2022-08-25T14:16:51;24.70;99.90
28725;DHT22;43472;48.980;9.646;2022-08-25T14:21:58;26.00;99.90
28725;DHT22;43472;48.980;9.646;2022-08-25T14:27:03;26.20;99.90
28725;DHT22;43472;48.980;9.646;2022-08-25T14:32:05;24.30;99.90
28725;DHT22;43472;48.980;9.646;2022-08-25T14:37:18;24.30;99.90
28725;DHT22;43472;48.980;9.646;2022-08-25T14:42:25;24.40;99.90
28725;DHT22;43472;48.980;9.646;2022-08-25T14:47:28;24.40;99.90
28725;DHT22;43472;48.980;9.646;2022-08-25T14:52:32;24.40;99.90
28725;DHT22;43472;48.980;9.646;2022-08-25T15:02:43;23.50;99.90
28725;DHT22;43472;48.980;9.646;2022-08-25T15:07:57;22.20;99.90
28725;DHT22;43472;48.980;9.646;2022-08-25T15:13:26;23.30;99.90
28725;DHT22;43472;48.980;9.646;2022-08-25T15:18:38;23.40;99.90
28725;DHT22;43472;48.980;9.646;2022-08-25T15:28:48;22.90;99.90
28725;DHT22;43472;48.980;9.646;2022-08-25T15:38:53;23.00;99.90
28725;DHT22;43472;48.980;9.646;2022-08-25T15:43:56;23.10;99.90
28725;DHT22;43472;48.980;9.646;2022-08-25T15:54:02;23.20;99.90
28725;DHT22;43472;48.980;9.646;2022-08-25T15:59:05;23.30;99.90
28725;DHT22;43472;48.980;9.646;2022-08-25T16:04:09;23.40;99.90
28725;DHT22;43472;48.980;9.646;2022-08-25T16:09:11;23.20;99.90
28725;DHT22;43472;48.980;9.646;2022-08-25T16:14:13;23.10;99.90
28725;DHT22;43472;48.980;9.646;2022-08-25T16:19:16;22.90;99.90
28725;DHT22;43472;48.980;9.646;2022-08-25T16:24:18;22.80;99.90
28725;DHT22;43472;48.980;9.646;2022-08-25T16:29:21;22.80;99.90
28725;DHT22;43472;48.980;9.646;2022-08-25T16:34:23;22.80;99.90
28725;DHT22;43472;48.980;9.646;2022-08-25T17:10:05;22.80;99.90
28725;DHT22;43472;48.980;9.646;2022-08-25T17:15:13;22.80;99.90
28725;DHT22;43472;48.980;9.646;2022-08-25T17:20:22;22.60;99.90
28725;DHT22;43472;48.980;9.646;2022-08-25T17:35:39;22.60;99.90
28725;DHT22;43472;48.980;9.646;2022-08-25T17:40:42;22.50;99.90
28725;DHT22;43472;48.980;9.646;2022-08-25T17:55:59;22.80;99.90
28725;DHT22;43472;48.980;9.646;2022-08-25T18:01:03;22.70;99.90
28725;DHT22;43472;48.980;9.646;2022-08-25T18:06:05;22.70;99.90
28725;DHT22;43472;48.980;9.646;2022-08-25T18:11:08;22.40;99.90
28725;DHT22;43472;48.980;9.646;2022-08-25T18:21:16;22.70;99.90
28725;DHT22;43472;48.980;9.646;2022-08-25T18:51:58;22.00;99.90
28725;DHT22;43472;48.980;9.646;2022-08-25T19:02:03;23.50;99.90
28725;DHT22;43472;48.980;9.646;2022-08-25T19:07:05;23.50;99.90
28725;DHT22;43472;48.980;9.646;2022-08-25T19:12:09;23.30;99.90
28725;DHT22;43472;48.980;9.646;2022-08-25T19:17:22;23.70;99.90
28725;DHT22;43472;48.980;9.646;2022-08-25T19:22:26;23.30;99.90
28725;DHT22;43472;48.980;9.646;2022-08-25T19:27:43;23.20;99.90
28725;DHT22;43472;48.980;9.646;2022-08-25T19:32:46;23.10;99.90
28725;DHT22;43472;48.980;9.646;2022-08-25T19:37:50;22.90;99.90
28725;DHT22;43472;48.980;9.646;2022-08-25T19:42:52;22.80;99.90
28725;DHT22;43472;48.980;9.646;2022-08-25T19:47:55;22.70;99.90
28725;DHT22;43472;48.980;9.646;2022-08-25T19:52:58;23.30;99.90
28725;DHT22;43472;48.980;9.646;2022-08-25T19:58:02;22.50;99.90
28725;DHT22;43472;48.980;9.646;2022-08-25T20:03:05;22.20;99.90
28725;DHT22;43472;48.980;9.646;2022-08-25T20:08:08;22.00;99.90
28725;DHT22;43472;48.980;9.646;2022-08-25T20:13:09;22.10;99.90
28725;DHT22;43472;48.980;9.646;2022-08-25T20:18:12;22.10;99.90
28725;DHT22;43472;48.980;9.646;2022-08-25T20:23:14;22.10;99.90
28725;DHT22;43472;48.980;9.646;2022-08-25T20:28:35;22.10;99.90
28725;DHT22;43472;48.980;9.646;2022-08-25T20:33:36;21.90;99.90
28725;DHT22;43472;48.980;9.646;2022-08-25T20:38:40;21.90;99.90
28725;DHT22;43472;48.980;9.646;2022-08-25T20:43:45;21.80;99.90
28725;DHT22;43472;48.980;9.646;2022-08-25T20:48:47;21.70;99.90
28725;DHT22;43472;48.980;9.646;2022-08-25T20:53:49;21.60;99.90
28725;DHT22;43472;48.980;9.646;2022-08-25T20:58:51;21.50;99.90
28725;DHT22;43472;48.980;9.646;2022-08-25T21:03:53;21.10;99.90
28725;DHT22;43472;48.980;9.646;2022-08-25T21:08:54;21.00;99.90
28725;DHT22;43472;48.980;9.646;2022-08-25T21:13:56;21.10;99.90
28725;DHT22;43472;48.980;9.646;2022-08-25T21:18:59;23.00;99.90
28725;DHT22;43472;48.980;9.646;2022-08-25T21:24:02;20.90;99.90
28725;DHT22;43472;48.980;9.646;2022-08-25T21:29:09;20.80;99.90
28725;DHT22;43472;48.980;9.646;2022-08-25T21:34:18;20.90;99.90
28725;DHT22;43472;48.980;9.646;2022-08-25T21:39:21;20.90;99.90
28725;DHT22;43472;48.980;9.646;2022-08-25T21:44:23;20.40;99.90
28725;DHT22;43472;48.980;9.646;2022-08-25T21:49:26;20.30;99.90
28725;DHT22;43472;48.980;9.646;2022-08-25T21:54:29;20.50;99.90
28725;DHT22;43472;48.980;9.646;2022-08-25T21:59:33;20.70;99.90
28725;DHT22;43472;48.980;9.646;2022-08-25T22:04:36;20.70;99.90
28725;DHT22;43472;48.980;9.646;2022-08-25T22:09:39;20.60;99.90
28725;DHT22;43472;48.980;9.646;2022-08-25T22:14:41;21.00;99.90
28725;DHT22;43472;48.980;9.646;2022-08-25T22:19:43;20.50;99.90
28725;DHT22;43472;48.980;9.646;2022-08-25T22:24:46;20.40;99.90
28725;DHT22;43472;48.980;9.646;2022-08-25T22:29:48;20.30;99.90
28725;DHT22;43472;48.980;9.646;2022-08-25T22:34:49;20.30;99.90
28725;DHT22;43472;48.980;9.646;2022-08-25T22:49:57;20.10;99.90
28725;DHT22;43472;48.980;9.646;2022-08-25T23:00:07;19.80;99.90
28725;DHT22;43472;48.980;9.646;2022-08-25T23:05:11;19.60;99.90
28725;DHT22;43472;48.980;9.646;2022-08-25T23:30:48;19.60;99.90
28725;DHT22;43472;48.980;9.646;2022-08-25T23:36:02;19.50;99.90
28725;DHT22;43472;48.980;9.646;2022-08-25T23:41:06;19.60;99.90
28725;DHT22;43472;48.980;9.646;2022-08-25T23:46:09;19.60;99.90
28725;DHT22;43472;48.980;9.646;2022-08-25T23:51:11;19.40;99.90
28725;DHT22;43472;48.980;9.646;2022-08-25T23:56:13;19.30;99.90
